createdAt,value
2018-03-15T00:37:58.592Z,30.03
2018-03-15T00:40:26.114Z,27.83
2018-03-15T00:42:53.642Z,29.87
2018-03-15T00:45:21.191Z,29.30
2018-03-15T00:47:48.725Z,28.27
2018-03-15T00:50:16.254Z,29.50
2018-03-15T00:52:43.797Z,28.13
2018-03-15T00:55:11.332Z,26.83
2018-03-15T00:57:38.859Z,29.93
2018-03-15T01:00:06.378Z,26.30
2018-03-15T01:02:33.914Z,29.17
2018-03-15T01:05:01.466Z,30.00
2018-03-15T01:07:28.997Z,26.67
2018-03-15T01:09:56.537Z,28.93
2018-03-15T01:12:24.082Z,29.63
2018-03-15T01:14:51.709Z,28.97
2018-03-15T01:17:19.225Z,31.17
2018-03-15T01:19:46.825Z,29.30
2018-03-15T01:22:14.402Z,31.53
2018-03-15T01:24:42.052Z,31.40
2018-03-15T01:27:09.610Z,28.60
2018-03-15T01:29:37.138Z,30.37
2018-03-15T01:32:04.665Z,32.23
2018-03-15T01:34:32.191Z,31.27
2018-03-15T01:36:59.745Z,34.37
2018-03-15T01:39:27.274Z,36.67
2018-03-15T01:41:54.875Z,36.23
2018-03-15T01:44:22.401Z,36.77
2018-03-15T01:46:49.959Z,36.53
2018-03-15T01:49:17.550Z,36.50
2018-03-15T01:51:45.072Z,36.33
2018-03-15T01:54:12.667Z,35.13
2018-03-15T01:56:40.218Z,34.50
2018-03-15T01:59:07.740Z,33.83
2018-03-15T02:01:35.353Z,34.40
2018-03-15T02:04:02.895Z,34.03
2018-03-15T02:06:30.439Z,34.63
2018-03-15T02:08:58.556Z,35.03
2018-03-15T02:11:26.085Z,36.20
2018-03-15T02:13:53.622Z,35.53
2018-03-15T02:16:21.154Z,34.53
2018-03-15T02:18:48.710Z,32.47
2018-03-15T02:21:16.343Z,31.37
2018-03-15T02:23:43.868Z,32.97
2018-03-15T02:26:11.390Z,31.27
2018-03-15T02:28:38.920Z,35.83
2018-03-15T02:31:06.480Z,34.63
2018-03-15T02:33:34.026Z,38.73
2018-03-15T02:36:01.592Z,33.23
2018-03-15T02:38:29.129Z,34.23
2018-03-15T02:40:56.723Z,30.77
2018-03-15T02:43:24.266Z,34.10
2018-03-15T02:45:51.842Z,32.90
2018-03-15T02:48:19.381Z,32.33
2018-03-15T02:50:46.956Z,30.67
2018-03-15T02:53:14.487Z,34.70
2018-03-15T02:55:42.015Z,34.40
2018-03-15T02:58:09.600Z,32.13
2018-03-15T03:00:37.129Z,32.90
2018-03-15T03:03:04.788Z,35.63
2018-03-15T03:05:32.326Z,31.90
2018-03-15T03:07:59.861Z,33.63
2018-03-15T03:10:27.441Z,31.87
2018-03-15T03:12:55.001Z,31.93
2018-03-15T03:15:22.532Z,30.63
2018-03-15T03:17:50.124Z,29.07
2018-03-15T03:20:17.649Z,29.80
2018-03-15T03:22:45.169Z,27.70
2018-03-15T03:25:12.686Z,28.43
2018-03-15T03:27:40.260Z,30.83
2018-03-15T03:30:07.801Z,29.67
2018-03-15T03:32:35.333Z,27.13
2018-03-15T03:35:02.950Z,26.80
2018-03-15T03:37:30.475Z,28.83
2018-03-15T03:39:58.018Z,28.33
2018-03-15T03:42:25.561Z,28.93
2018-03-15T03:44:53.105Z,25.60
2018-03-15T03:47:20.674Z,31.37
2018-03-15T03:49:48.262Z,28.47
2018-03-15T03:52:15.785Z,29.23
2018-03-15T03:54:43.312Z,29.30
2018-03-15T03:57:10.843Z,28.63
2018-03-15T03:59:38.370Z,28.43
2018-03-15T04:02:05.993Z,26.50
2018-03-15T04:04:33.526Z,27.77
2018-03-15T04:07:01.120Z,29.20
2018-03-15T04:09:28.645Z,27.57
2018-03-15T04:11:56.260Z,30.93
2018-03-15T04:14:23.798Z,28.37
2018-03-15T04:16:51.344Z,26.97
2018-03-15T04:19:18.880Z,27.73
2018-03-15T04:21:46.407Z,30.17
2018-03-15T04:24:13.940Z,29.07
2018-03-15T04:26:41.498Z,29.70
2018-03-15T04:29:09.038Z,27.03
2018-03-15T04:31:36.559Z,29.50
2018-03-15T04:34:04.089Z,25.90
2018-03-15T04:36:31.634Z,29.43
2018-03-15T04:38:59.178Z,30.00
2018-03-15T04:41:26.722Z,29.70
2018-03-15T04:43:54.254Z,29.07
2018-03-15T04:46:21.859Z,29.60
2018-03-15T04:48:49.404Z,29.87
2018-03-15T04:51:16.994Z,29.93
2018-03-15T04:53:44.528Z,29.60
2018-03-15T04:56:12.114Z,30.40
2018-03-15T04:58:39.657Z,33.20
2018-03-15T05:01:07.189Z,32.40
2018-03-15T05:03:34.721Z,33.90
2018-03-15T05:06:02.270Z,30.53
2018-03-15T05:08:29.915Z,31.80
2018-03-15T05:10:57.442Z,33.50
2018-03-15T05:13:25.034Z,30.60
2018-03-15T05:15:52.578Z,31.43
2018-03-15T05:18:20.116Z,28.70
2018-03-15T05:20:47.676Z,31.80
2018-03-15T05:23:15.277Z,32.13
2018-03-15T05:25:42.802Z,33.70
2018-03-15T05:28:10.398Z,30.50
2018-03-15T05:30:37.929Z,36.43
2018-03-15T05:33:05.517Z,32.63
2018-03-15T05:35:33.073Z,35.47
2018-03-15T05:38:00.641Z,35.90
2018-03-15T05:40:28.162Z,39.20
2018-03-15T05:42:55.738Z,37.40
2018-03-15T05:45:23.282Z,41.73
2018-03-15T05:47:50.817Z,37.57
2018-03-15T05:50:18.449Z,40.17
2018-03-15T05:52:46.110Z,40.93
2018-03-15T05:55:13.776Z,41.00
2018-03-15T05:57:41.292Z,42.23
2018-03-15T06:00:08.821Z,44.80
2018-03-15T06:02:36.387Z,45.23
2018-03-15T06:05:03.910Z,41.00
2018-03-15T06:07:31.479Z,45.43
2018-03-15T06:09:59.127Z,50.20
2018-03-15T06:12:26.653Z,45.67
2018-03-15T06:14:54.249Z,45.07
2018-03-15T06:17:21.765Z,45.57
2018-03-15T06:19:49.296Z,47.17
2018-03-15T06:22:16.922Z,46.03
2018-03-15T06:24:44.448Z,45.40
2018-03-15T06:27:12.002Z,41.30
2018-03-15T06:29:39.532Z,45.27
2018-03-15T06:32:07.059Z,41.87
2018-03-15T06:34:34.614Z,41.07
2018-03-15T06:37:02.138Z,45.40
2018-03-15T06:39:29.674Z,42.40
2018-03-15T06:41:57.205Z,43.17
2018-03-15T06:44:24.742Z,42.03
2018-03-15T06:46:52.281Z,44.33
2018-03-15T06:49:19.813Z,42.40
2018-03-15T06:51:47.437Z,43.27
2018-03-15T06:54:14.995Z,44.60
2018-03-15T06:56:42.528Z,44.33
2018-03-15T06:59:10.086Z,45.07
2018-03-15T07:01:37.606Z,40.70
2018-03-15T07:04:05.121Z,46.20
2018-03-15T07:06:33.525Z,43.43
2018-03-15T07:09:01.078Z,42.20
2018-03-15T07:11:28.596Z,40.83
2018-03-15T07:13:56.189Z,42.30
2018-03-15T07:16:23.710Z,40.20
2018-03-15T07:18:51.244Z,42.50
2018-03-15T07:21:18.773Z,43.83
2018-03-15T07:23:46.336Z,41.43
2018-03-15T07:26:13.980Z,40.57
2018-03-15T07:28:41.505Z,41.60
2018-03-15T07:31:10.121Z,39.30
2018-03-15T07:33:37.644Z,35.77
2018-03-15T07:36:05.214Z,39.43
2018-03-15T07:38:32.743Z,36.33
2018-03-15T07:41:00.373Z,35.43
2018-03-15T07:43:27.930Z,36.50
2018-03-15T07:45:55.466Z,35.00
2018-03-15T07:48:23.009Z,32.33
2018-03-15T07:50:50.561Z,36.47
2018-03-15T07:53:18.099Z,35.10
2018-03-15T07:55:45.635Z,35.43
2018-03-15T07:58:13.197Z,35.43
2018-03-15T08:00:40.793Z,38.00
2018-03-15T08:03:08.362Z,31.83
2018-03-15T08:05:35.962Z,33.93
2018-03-15T08:08:03.489Z,34.47
2018-03-15T08:10:31.126Z,33.67
2018-03-15T08:12:58.653Z,34.70
2018-03-15T08:15:26.173Z,34.10
2018-03-15T08:17:53.778Z,36.77
2018-03-15T08:20:21.334Z,33.50
2018-03-15T08:22:48.895Z,37.63
2018-03-15T08:25:16.413Z,35.60
2018-03-15T08:27:43.974Z,33.17
2018-03-15T08:30:11.538Z,36.53
2018-03-15T08:32:39.077Z,34.10
2018-03-15T08:35:06.685Z,34.30
2018-03-15T08:37:35.008Z,32.37
2018-03-15T08:40:02.656Z,31.93
2018-03-15T08:42:30.198Z,35.80
2018-03-15T08:44:57.753Z,38.50
2018-03-15T08:47:25.274Z,36.23
2018-03-15T08:49:52.865Z,38.63
2018-03-15T08:52:20.414Z,36.57
2018-03-15T08:54:47.934Z,35.87
2018-03-15T08:57:15.462Z,37.00
2018-03-15T08:59:43.123Z,34.63
2018-03-15T09:02:10.874Z,35.70
2018-03-15T09:04:39.069Z,36.57
2018-03-15T09:07:06.006Z,37.03
2018-03-15T09:09:33.567Z,36.33
2018-03-15T09:12:01.113Z,36.30
2018-03-15T09:14:28.787Z,34.40
2018-03-15T09:16:56.319Z,37.23
2018-03-15T09:19:23.842Z,33.00
2018-03-15T09:21:51.394Z,33.80
2018-03-15T09:24:18.927Z,35.17
2018-03-15T09:26:46.484Z,37.93
2018-03-15T09:29:14.045Z,33.00
2018-03-15T09:31:41.569Z,33.07
2018-03-15T09:34:09.130Z,33.57
2018-03-15T09:36:36.689Z,33.13
2018-03-15T09:39:04.254Z,30.90
2018-03-15T09:41:31.846Z,32.73
2018-03-15T09:43:59.444Z,33.50
2018-03-15T09:46:27.087Z,32.37
2018-03-15T09:48:54.642Z,30.00
2018-03-15T09:51:22.275Z,30.10
2018-03-15T09:53:49.813Z,33.27
2018-03-15T09:56:17.390Z,29.73
2018-03-15T09:58:45.038Z,31.97
2018-03-15T10:01:12.625Z,34.93
2018-03-15T10:03:40.293Z,33.60
2018-03-15T10:06:07.862Z,30.50
2018-03-15T10:08:35.430Z,31.10
2018-03-15T10:11:03.075Z,27.83
2018-03-15T10:13:30.619Z,30.93
2018-03-15T10:15:58.226Z,30.80
2018-03-15T10:18:25.796Z,31.43
2018-03-15T10:20:53.429Z,32.90
2018-03-15T10:23:20.973Z,30.53
2018-03-15T10:25:48.520Z,33.20
2018-03-15T10:28:16.102Z,36.73
2018-03-15T10:30:43.746Z,31.17
2018-03-15T10:33:16.846Z,33.53
2018-03-15T10:35:44.407Z,33.43
2018-03-15T10:38:11.972Z,38.70
2018-03-15T10:40:39.526Z,33.63
2018-03-15T10:43:07.118Z,33.90
2018-03-15T10:45:34.653Z,32.63
2018-03-15T10:48:02.327Z,33.60
2018-03-15T10:50:29.932Z,28.37
2018-03-15T10:52:57.529Z,30.00
2018-03-15T10:55:25.071Z,31.13
2018-03-15T10:57:52.658Z,33.03
2018-03-15T11:03:29.660Z,30.30
2018-03-15T11:06:02.933Z,32.03
2018-03-15T11:08:37.107Z,29.53
2018-03-15T11:11:04.743Z,28.70
2018-03-15T11:13:32.381Z,34.60
2018-03-15T11:15:59.888Z,32.50
2018-03-15T11:18:27.451Z,28.93
2018-03-15T11:20:55.049Z,30.47
2018-03-15T11:23:22.630Z,27.03
2018-03-15T11:25:50.189Z,30.73
2018-03-15T11:28:17.733Z,28.73
2018-03-15T11:30:45.520Z,29.17
2018-03-15T11:33:13.105Z,33.20
2018-03-15T11:35:40.671Z,31.37
2018-03-15T11:38:08.225Z,31.67
2018-03-15T11:40:35.794Z,30.00
2018-03-15T11:43:03.349Z,29.00
2018-03-15T11:45:30.916Z,31.03
2018-03-15T11:47:58.468Z,28.10
2018-03-15T11:50:26.201Z,28.07
2018-03-15T11:52:53.761Z,31.73
2018-03-15T11:55:21.285Z,29.10
2018-03-15T11:57:48.856Z,29.33
2018-03-15T12:00:16.398Z,29.37
2018-03-15T12:02:44.000Z,26.23
2018-03-15T12:05:11.561Z,28.37
2018-03-15T12:07:39.248Z,26.73
2018-03-15T12:10:06.898Z,25.50
2018-03-15T12:12:34.447Z,26.73
2018-03-15T12:15:02.013Z,27.17
2018-03-15T12:17:29.667Z,27.63
2018-03-15T12:19:57.228Z,24.50
2018-03-15T12:22:24.767Z,28.33
2018-03-15T12:24:52.349Z,29.93
2018-03-15T12:27:19.881Z,26.57
2018-03-15T12:29:47.472Z,24.87
2018-03-15T12:32:15.028Z,27.73
2018-03-15T12:34:42.588Z,27.47
2018-03-15T12:37:10.146Z,23.53
2018-03-15T12:39:37.704Z,20.97
2018-03-15T12:42:05.294Z,22.90
2018-03-15T12:44:32.948Z,24.63
2018-03-15T12:47:00.592Z,25.37
2018-03-15T12:49:28.118Z,20.47
2018-03-15T12:51:55.637Z,19.77
2018-03-15T12:54:23.165Z,19.97
2018-03-15T12:56:50.698Z,19.53
2018-03-15T12:59:18.332Z,23.63
2018-03-15T13:01:45.873Z,23.90
2018-03-15T13:04:13.409Z,21.80
2018-03-15T13:06:40.966Z,20.33
2018-03-15T13:09:08.534Z,19.13
2018-03-15T13:11:36.063Z,22.20
2018-03-15T13:14:03.666Z,19.87
2018-03-15T13:16:31.212Z,21.07
2018-03-15T13:18:58.741Z,19.30
2018-03-15T13:21:26.318Z,18.57
2018-03-15T13:23:53.877Z,21.03
2018-03-15T13:26:21.419Z,20.73
2018-03-15T13:28:48.944Z,21.30
2018-03-15T13:31:16.502Z,19.53
2018-03-15T13:33:44.086Z,21.47
2018-03-15T13:36:11.619Z,19.73
2018-03-15T13:38:39.247Z,19.53
2018-03-15T13:41:06.769Z,19.73
2018-03-15T13:43:34.327Z,17.97
2018-03-15T13:46:01.852Z,19.70
2018-03-15T13:48:29.533Z,19.83
2018-03-15T13:50:57.093Z,20.63
2018-03-15T13:53:24.700Z,32.00
2018-03-15T13:55:52.241Z,20.97
2018-03-15T13:58:19.848Z,18.73
2018-03-15T14:00:47.394Z,19.90
2018-03-15T14:03:14.955Z,18.57
2018-03-15T14:05:42.618Z,20.73
2018-03-15T14:08:10.195Z,20.77
2018-03-15T14:10:37.845Z,23.63
2018-03-15T14:13:05.366Z,18.97
2018-03-15T14:15:32.885Z,23.77
2018-03-15T14:18:00.417Z,23.13
2018-03-15T14:20:28.009Z,22.27
2018-03-15T14:22:55.584Z,18.93
2018-03-15T14:25:23.270Z,21.17
2018-03-15T14:27:50.804Z,19.70
2018-03-15T14:30:18.349Z,22.97
2018-03-15T14:32:45.865Z,22.87
2018-03-15T14:35:13.389Z,23.27
2018-03-15T14:37:40.940Z,20.30
2018-03-15T14:40:08.522Z,22.30
2018-03-15T14:42:36.325Z,19.50
2018-03-15T14:45:03.988Z,23.50
2018-03-15T14:47:31.524Z,24.87
2018-03-15T14:49:59.619Z,22.80
2018-03-15T14:52:27.145Z,24.43
2018-03-15T14:54:54.694Z,25.40
2018-03-15T14:57:22.275Z,22.57
2018-03-15T14:59:49.859Z,22.27
2018-03-15T15:02:17.386Z,21.67
2018-03-15T15:04:44.983Z,22.37
2018-03-15T15:07:12.541Z,19.20
2018-03-15T15:09:40.053Z,21.20
2018-03-15T15:12:07.658Z,22.43
2018-03-15T15:14:35.221Z,23.97
2018-03-15T15:17:02.883Z,23.27
2018-03-15T15:19:30.612Z,25.60
2018-03-15T15:21:58.138Z,22.77
2018-03-15T15:24:25.675Z,21.77
2018-03-15T15:26:53.362Z,22.27
2018-03-15T15:29:20.888Z,22.40
2018-03-15T15:31:48.447Z,22.50
2018-03-15T15:34:15.984Z,22.37
2018-03-15T15:36:43.498Z,27.47
2018-03-15T15:39:11.024Z,21.07
2018-03-15T15:41:38.558Z,22.27
2018-03-15T15:44:06.144Z,22.97
2018-03-15T15:46:34.114Z,24.47
2018-03-15T15:49:01.785Z,24.63
2018-03-15T15:51:29.306Z,23.60
2018-03-15T15:53:56.931Z,21.43
2018-03-15T15:56:24.470Z,21.60
2018-03-15T15:58:52.013Z,24.07
2018-03-15T16:01:19.648Z,23.53
2018-03-15T16:03:47.210Z,21.63
2018-03-15T16:06:14.738Z,20.53
2018-03-15T16:08:42.264Z,21.87
2018-03-15T16:11:09.814Z,22.00
2018-03-15T16:13:37.347Z,22.17
2018-03-15T16:16:04.936Z,23.07
2018-03-15T16:18:32.497Z,23.23
2018-03-15T16:21:00.093Z,24.27
2018-03-15T16:23:27.668Z,24.90
2018-03-15T16:25:55.234Z,24.20
2018-03-15T16:28:22.767Z,21.47
2018-03-15T16:30:50.394Z,21.23
2018-03-15T16:33:17.937Z,20.57
2018-03-15T16:35:45.473Z,24.63
2018-03-15T16:38:13.032Z,23.07
2018-03-15T16:40:40.561Z,22.87
2018-03-15T16:43:08.106Z,25.00
2018-03-15T16:45:35.659Z,23.30
2018-03-15T16:48:03.219Z,21.37
2018-03-15T16:50:30.776Z,22.60
2018-03-15T16:52:58.368Z,20.43
2018-03-15T16:55:25.937Z,22.03
2018-03-15T16:57:53.467Z,23.50
2018-03-15T17:00:20.985Z,22.53
2018-03-15T17:02:48.513Z,24.97
2018-03-15T17:05:16.021Z,22.57
2018-03-15T17:07:43.603Z,26.43
2018-03-15T17:10:11.159Z,26.90
2018-03-15T17:12:38.671Z,24.97
2018-03-15T17:15:06.672Z,25.07
2018-03-15T17:17:34.192Z,24.83
2018-03-15T17:20:01.742Z,24.10
2018-03-15T17:22:29.275Z,23.50
2018-03-15T17:24:56.832Z,25.30
2018-03-15T17:27:24.369Z,25.50
2018-03-15T17:29:52.054Z,30.50
2018-03-15T17:32:19.589Z,26.50
2018-03-15T17:34:47.113Z,28.27
2018-03-15T17:37:14.725Z,26.23
2018-03-15T17:39:42.417Z,25.47
2018-03-15T17:42:10.045Z,28.93
2018-03-15T17:44:37.575Z,25.50
2018-03-15T17:47:05.168Z,27.00
2018-03-15T17:49:32.736Z,26.73
2018-03-15T17:52:00.296Z,31.03
2018-03-15T17:54:27.963Z,27.73
2018-03-15T17:56:55.660Z,28.60
2018-03-15T17:59:23.254Z,28.27
2018-03-15T18:01:51.154Z,31.53
2018-03-15T18:04:18.707Z,29.13
2018-03-15T18:06:46.269Z,30.50
2018-03-15T18:09:13.833Z,29.70
2018-03-15T18:11:41.369Z,30.20
2018-03-15T18:14:08.902Z,31.23
2018-03-15T18:16:36.429Z,30.93
2018-03-15T18:19:03.949Z,31.83
2018-03-15T18:21:31.494Z,32.83
2018-03-15T18:23:59.009Z,31.83
2018-03-15T18:26:26.539Z,31.87
2018-03-15T18:28:54.070Z,32.10
2018-03-15T18:31:21.611Z,35.03
2018-03-15T18:33:49.173Z,32.73
2018-03-15T18:36:16.780Z,38.43
2018-03-15T18:38:44.322Z,35.93
2018-03-15T18:41:11.895Z,34.00
2018-03-15T18:43:39.414Z,39.87
2018-03-15T18:46:06.942Z,38.67
2018-03-15T18:48:34.566Z,35.33
2018-03-15T18:51:02.111Z,40.00
2018-03-15T18:53:29.629Z,37.20
2018-03-15T18:55:57.164Z,36.23
2018-03-15T18:58:24.702Z,32.77
2018-03-15T19:00:52.279Z,38.30
2018-03-15T19:03:19.834Z,38.63
2018-03-15T19:05:47.367Z,37.93
2018-03-15T19:08:14.890Z,39.97
2018-03-15T19:10:42.453Z,39.03
2018-03-15T19:13:10.051Z,42.83
2018-03-15T19:15:37.658Z,39.90
2018-03-15T19:18:05.195Z,39.90
2018-03-15T19:20:32.754Z,42.90
2018-03-15T19:23:00.290Z,38.20
2018-03-15T19:25:27.809Z,48.33
2018-03-15T19:27:55.336Z,48.37
2018-03-15T19:30:22.894Z,43.47
2018-03-15T19:32:50.456Z,45.57
2018-03-15T19:35:17.981Z,48.47
2018-03-15T19:37:45.582Z,44.20
2018-03-15T19:40:13.121Z,46.63
2018-03-15T19:42:40.725Z,46.23
2018-03-15T19:45:08.261Z,47.67
2018-03-15T19:47:35.820Z,44.73
2018-03-15T19:50:03.373Z,50.80
2018-03-15T19:52:30.920Z,47.27
2018-03-15T19:54:58.481Z,47.07
2018-03-15T19:57:26.058Z,46.17
2018-03-15T19:59:53.581Z,47.77
2018-03-15T20:02:21.120Z,45.83
2018-03-15T20:04:48.648Z,47.30
2018-03-15T20:07:16.249Z,46.87
2018-03-15T20:09:43.721Z,45.57
2018-03-15T20:12:11.281Z,45.07
2018-03-15T20:14:38.817Z,46.90
2018-03-15T20:17:06.437Z,50.30
2018-03-15T20:19:33.972Z,53.10
2018-03-15T20:22:01.499Z,51.13
2018-03-15T20:24:30.963Z,49.67
2018-03-15T20:26:58.496Z,49.00
2018-03-15T20:29:26.022Z,50.43
2018-03-15T20:31:53.872Z,47.00
2018-03-15T20:34:21.721Z,49.80
2018-03-15T20:36:49.271Z,52.27
2018-03-15T20:39:22.343Z,53.57
2018-03-15T20:41:49.872Z,50.17
2018-03-15T20:44:19.018Z,50.03
2018-03-15T20:46:52.191Z,49.77
2018-03-15T20:49:20.280Z,51.30
2018-03-15T20:51:47.845Z,54.97
2018-03-15T20:54:16.015Z,54.60
2018-03-15T20:56:43.985Z,52.73
2018-03-15T20:59:11.853Z,52.67
2018-03-15T21:01:39.381Z,50.20
2018-03-15T21:04:07.200Z,50.57
2018-03-15T21:06:34.852Z,51.43
2018-03-15T21:09:02.404Z,51.87
2018-03-15T21:11:30.055Z,55.43
2018-03-15T21:13:57.797Z,56.70
2018-03-15T21:16:25.361Z,58.33
2018-03-15T21:18:52.913Z,58.30
2018-03-15T21:21:20.444Z,59.33
2018-03-15T21:23:48.102Z,61.00
2018-03-15T21:26:15.722Z,56.47
2018-03-15T21:28:43.236Z,61.23
2018-03-15T21:31:10.780Z,58.33
2018-03-15T21:33:38.306Z,59.03
2018-03-15T21:36:05.831Z,66.20
2018-03-15T21:38:33.348Z,54.60
2018-03-15T21:41:00.937Z,57.33
2018-03-15T21:43:28.544Z,56.83
2018-03-15T21:45:56.312Z,60.67
2018-03-15T21:48:23.865Z,62.57
2018-03-15T21:50:51.395Z,59.93
2018-03-15T21:53:18.922Z,57.50
2018-03-15T21:55:46.553Z,64.77
2018-03-15T21:58:14.072Z,61.37
2018-03-15T22:00:41.602Z,60.37
2018-03-15T22:03:09.170Z,62.13
2018-03-15T22:05:36.720Z,58.63
2018-03-15T22:08:04.252Z,62.97
2018-03-15T22:10:31.764Z,64.23
2018-03-15T22:12:59.351Z,63.93
2018-03-15T22:15:26.885Z,63.47
2018-03-15T22:17:54.598Z,65.40
2018-03-15T22:20:22.154Z,61.27
2018-03-15T22:22:49.812Z,61.90
2018-03-15T22:25:17.460Z,66.80
2018-03-15T22:27:45.039Z,69.60
2018-03-15T22:30:12.582Z,66.40
2018-03-15T22:32:40.152Z,67.07
2018-03-15T22:35:07.687Z,61.03
2018-03-15T22:37:35.202Z,68.83
2018-03-15T22:40:02.771Z,66.07
2018-03-15T22:42:30.287Z,65.10
2018-03-15T22:44:57.853Z,68.83
2018-03-15T22:47:25.426Z,71.23
2018-03-15T22:49:52.958Z,62.10
2018-03-15T22:52:20.538Z,66.47
2018-03-15T22:54:48.078Z,69.43
2018-03-15T22:57:15.594Z,62.60
2018-03-15T22:59:43.212Z,64.93
2018-03-15T23:02:10.814Z,75.90
2018-03-15T23:04:38.332Z,65.47
2018-03-15T23:07:06.918Z,67.17
2018-03-15T23:09:34.614Z,66.83
2018-03-15T23:12:02.139Z,66.77
2018-03-15T23:14:29.695Z,67.40
2018-03-15T23:16:57.226Z,66.13
2018-03-15T23:19:24.770Z,68.20
2018-03-15T23:21:52.687Z,66.93
2018-03-15T23:24:20.227Z,67.97
2018-03-15T23:26:47.968Z,66.67
2018-03-15T23:29:15.502Z,66.23
2018-03-15T23:31:43.082Z,60.97
2018-03-15T23:34:10.614Z,69.83
2018-03-15T23:36:38.150Z,67.27
2018-03-15T23:39:05.709Z,61.97
2018-03-15T23:41:33.279Z,63.53
2018-03-15T23:44:00.834Z,56.67
2018-03-15T23:46:28.366Z,61.27
2018-03-15T23:48:55.902Z,57.07
2018-03-15T23:51:23.430Z,57.10
2018-03-15T23:53:50.963Z,57.40
2018-03-15T23:56:18.492Z,58.87
2018-03-15T23:58:46.444Z,52.97
